Time;durP1;ratioP1;P1;durP2;ratioP2;P2;SDS_P1;SDS_P2;PMS_P1;PMS_P2;Temp;Humidity;BMP_temperature;BMP_pressure;BME280_temperature;BME280_humidity;BME280_pressure;Samples;Min_cycle;Max_cycle;Signal;HPM_P1;HPM_P2
2023/09/25 00:00:11;;;;;;;9.13;2.72;;;14.50;81.60;;;;;;5076572;28;20043;-78
2023/09/25 00:02:36;;;;;;;3.45;2.22;;;14.50;81.60;;;;;;5092736;28;20507;-79
2023/09/25 00:05:02;;;;;;;5.05;2.83;;;14.50;81.80;;;;;;5059112;28;20036;-80
2023/09/25 00:07:28;;;;;;;5.45;2.40;;;14.50;81.70;;;;;;5059447;28;20062;-81
2023/09/25 00:09:53;;;;;;;8.82;2.70;;;14.50;81.50;;;;;;5076234;28;20127;-81
2023/09/25 00:12:19;;;;;;;4.90;2.63;;;14.50;81.60;;;;;;5076171;28;20051;-81
2023/09/25 00:14:45;;;;;;;5.22;2.72;;;14.50;81.60;;;;;;5092732;28;20131;-80
2023/09/25 00:17:10;;;;;;;5.97;2.97;;;14.50;81.50;;;;;;5058791;28;20038;-80
2023/09/25 00:19:36;;;;;;;5.43;3.00;;;14.40;81.70;;;;;;5058935;28;20048;-80
2023/09/25 00:22:02;;;;;;;3.47;2.72;;;14.40;81.90;;;;;;5042928;28;20044;-81
2023/09/25 00:24:28;;;;;;;4.85;3.00;;;14.30;81.90;;;;;;5042684;28;20080;-80
2023/09/25 00:26:54;;;;;;;6.20;2.85;;;14.20;82.10;;;;;;5042208;28;20432;-80
2023/09/25 00:29:19;;;;;;;3.88;2.95;;;14.20;82.10;;;;;;5058764;28;20048;-82
2023/09/25 00:31:45;;;;;;;6.25;3.10;;;14.10;82.50;;;;;;5042215;28;20036;-79
2023/09/25 00:34:13;;;;;;;5.63;3.42;;;14.10;82.40;;;;;;5058766;28;20036;-81
2023/09/25 00:36:39;;;;;;;4.07;2.83;;;14.10;82.40;;;;;;5092178;28;20511;-81
2023/09/25 00:39:06;;;;;;;5.53;2.90;;;14.00;82.50;;;;;;5075468;28;20040;-80
2023/09/25 00:41:32;;;;;;;4.57;2.65;;;14.00;82.60;;;;;;5092466;28;20385;-81
2023/09/25 00:43:58;;;;;;;6.15;2.95;;;14.00;82.90;;;;;;5075618;28;20043;-81
2023/09/25 00:46:24;;;;;;;7.88;3.67;;;14.00;82.80;;;;;;5075240;28;20445;-80
2023/09/25 00:48:51;;;;;;;12.90;4.05;;;14.00;82.90;;;;;;5075638;28;20487;-79
2023/09/25 00:51:16;;;;;;;5.43;3.30;;;13.90;83.00;;;;;;5042497;28;20040;-79
2023/09/25 00:53:45;;;;;;;6.28;3.33;;;13.90;82.90;;;;;;5042165;28;20451;-81
2023/09/25 00:56:11;;;;;;;4.30;3.65;;;13.90;83.10;;;;;;5091923;28;20488;-81
2023/09/25 00:58:36;;;;;;;4.40;3.28;;;13.90;83.10;;;;;;5058692;28;20480;-79
2023/09/25 01:01:02;;;;;;;8.02;3.65;;;13.90;82.90;;;;;;5075177;28;20126;-80
2023/09/25 01:03:30;;;;;;;6.05;3.50;;;13.80;83.20;;;;;;5058569;28;20165;-79
2023/09/25 01:05:56;;;;;;;4.90;3.25;;;13.80;83.10;;;;;;5092014;28;20119;-81
2023/09/25 01:08:22;;;;;;;3.65;3.15;;;13.80;83.20;;;;;;5075261;28;20127;-80
2023/09/25 01:10:49;;;;;;;5.50;3.35;;;13.80;83.30;;;;;;5092515;28;20048;-78
2023/09/25 01:13:15;;;;;;;4.65;3.15;;;13.80;83.40;;;;;;5058882;28;20510;-79
2023/09/25 01:15:41;;;;;;;8.55;4.30;;;13.70;83.50;;;;;;5058642;28;20044;-79
2023/09/25 01:18:09;;;;;;;4.95;3.30;;;13.70;83.30;;;;;;5058125;28;20487;-80
2023/09/25 01:20:37;;;;;;;5.20;3.35;;;13.70;83.50;;;;;;5092360;28;20068;-80
2023/09/25 01:23:03;;;;;;;5.10;2.90;;;13.60;83.40;;;;;;5058319;28;20044;-80
2023/09/25 01:25:29;;;;;;;6.43;3.67;;;13.60;83.70;;;;;;5092001;28;20074;-80
2023/09/25 01:27:55;;;;;;;4.10;3.10;;;13.60;83.50;;;;;;5091887;28;20102;-80
2023/09/25 01:30:20;;;;;;;4.72;3.10;;;13.60;83.40;;;;;;5058082;28;20043;-79
2023/09/25 01:32:49;;;;;;;5.40;3.58;;;13.50;83.40;;;;;;5074772;28;20044;-81
2023/09/25 01:35:17;;;;;;;5.85;3.30;;;13.50;83.80;;;;;;5092115;28;20486;-80
2023/09/25 01:37:44;;;;;;;4.60;3.30;;;13.50;83.60;;;;;;5094124;28;20415;-79
2023/09/25 01:40:15;;;;;;;5.15;3.45;;;13.40;83.90;;;;;;5061855;28;20036;-81
2023/09/25 01:42:42;;;;;;;6.78;3.33;;;13.40;83.90;;;;;;5061667;28;20047;-78
2023/09/25 01:45:09;;;;;;;5.30;3.50;;;13.40;83.70;;;;;;5078551;28;20051;-82
2023/09/25 01:47:35;;;;;;;5.93;3.80;;;13.40;84.20;;;;;;5061960;28;20085;-80
2023/09/25 01:50:01;;;;;;;5.20;3.05;;;13.30;84.10;;;;;;5062258;28;20422;-81
2023/09/25 01:52:29;;;;;;;6.78;3.53;;;13.20;84.00;;;;;;5079193;28;20476;-81
2023/09/25 01:54:55;;;;;;;8.23;3.67;;;13.30;84.10;;;;;;5062608;28;20123;-81
2023/09/25 01:57:21;;;;;;;6.35;3.92;;;13.20;84.20;;;;;;5095790;28;20147;-82
2023/09/25 01:59:47;;;;;;;7.20;3.83;;;13.20;84.00;;;;;;5095275;28;20036;-82
2023/09/25 02:02:13;;;;;;;4.85;3.65;;;13.20;84.00;;;;;;5061410;28;20495;-80
2023/09/25 02:04:39;;;;;;;4.53;3.55;;;13.20;84.30;;;;;;5077997;28;20072;-79
2023/09/25 02:07:05;;;;;;;4.65;2.95;;;13.10;84.30;;;;;;5078776;28;20075;-79
2023/09/25 02:09:30;;;;;;;4.55;3.08;;;13.10;84.20;;;;;;5078980;28;20039;-83
2023/09/25 02:11:56;;;;;;;4.75;3.30;;;13.10;84.20;;;;;;5061326;28;20488;-82
2023/09/25 02:14:21;;;;;;;6.22;3.53;;;13.10;84.20;;;;;;5061653;28;20086;-81
2023/09/25 02:16:47;;;;;;;5.75;4.13;;;13.00;84.70;;;;;;5061502;28;20266;-82
2023/09/25 02:19:13;;;;;;;6.78;3.30;;;13.00;84.70;;;;;;5077506;28;20048;-81
2023/09/25 02:21:39;;;;;;;6.10;3.75;;;13.00;84.80;;;;;;5061256;28;20118;-78
2023/09/25 02:24:05;;;;;;;7.90;3.75;;;13.00;84.50;;;;;;5077697;28;20123;-79
2023/09/25 02:26:30;;;;;;;5.20;3.90;;;13.00;85.00;;;;;;5060873;28;20119;-81
2023/09/25 02:28:56;;;;;;;6.10;3.67;;;12.90;85.10;;;;;;5044300;28;20079;-80
2023/09/25 02:31:22;;;;;;;4.93;3.55;;;12.90;85.20;;;;;;5060953;28;20043;-80
2023/09/25 02:33:48;;;;;;;6.70;4.43;;;12.90;85.00;;;;;;5094377;28;20062;-80
2023/09/25 02:36:15;;;;;;;5.00;3.33;;;12.90;85.20;;;;;;5044461;28;20136;-82
2023/09/25 02:38:40;;;;;;;5.18;3.40;;;12.90;85.10;;;;;;5094501;28;20051;-79
2023/09/25 02:41:06;;;;;;;4.80;3.55;;;12.90;84.90;;;;;;5060849;28;20025;-79
2023/09/25 02:43:32;;;;;;;6.63;3.50;;;12.90;84.80;;;;;;5077478;28;20399;-81
2023/09/25 02:45:57;;;;;;;4.97;3.83;;;12.90;84.70;;;;;;5077255;28;20036;-80
2023/09/25 02:48:23;;;;;;;6.45;3.65;;;12.90;84.60;;;;;;5077039;28;20043;-81
2023/09/25 02:50:49;;;;;;;5.47;3.67;;;13.00;84.40;;;;;;5077431;28;20047;-81
2023/09/25 02:53:17;;;;;;;5.65;3.80;;;13.00;84.40;;;;;;5044028;28;20502;-80
2023/09/25 02:55:50;;;;;;;8.20;3.75;;;12.90;84.40;;;;;;5077173;28;20043;-79
2023/09/25 02:58:16;;;;;;;5.03;3.90;;;12.90;84.40;;;;;;5093886;28;20036;-79
2023/09/25 03:00:42;;;;;;;8.40;4.15;;;12.90;84.30;;;;;;5060271;28;20040;-79
2023/09/25 03:03:07;;;;;;;6.65;3.95;;;12.90;84.40;;;;;;5060429;28;20043;-79
2023/09/25 03:05:33;;;;;;;5.78;4.05;;;12.90;84.30;;;;;;5076936;28;20088;-81
2023/09/25 03:07:59;;;;;;;5.47;2.95;;;12.90;84.20;;;;;;5060484;28;20043;-81
2023/09/25 03:10:25;;;;;;;7.95;3.53;;;12.90;84.30;;;;;;5076546;28;20040;-81
2023/09/25 03:12:50;;;;;;;4.28;3.80;;;12.90;84.20;;;;;;5093351;28;20127;-80
2023/09/25 03:15:16;;;;;;;4.78;3.42;;;12.90;84.20;;;;;;5076968;28;20043;-79
2023/09/25 03:17:42;;;;;;;5.95;3.60;;;12.90;84.20;;;;;;5059674;28;20503;-80
2023/09/25 03:20:17;;;;;;;4.90;3.38;;;12.90;84.00;;;;;;5043758;28;20078;-83
2023/09/25 03:22:44;;;;;;;4.57;3.30;;;12.90;84.20;;;;;;5060414;28;20113;-80
2023/09/25 03:25:10;;;;;;;5.70;3.80;;;12.90;84.10;;;;;;5093748;28;20050;-80
2023/09/25 03:27:37;;;;;;;5.35;3.97;;;12.90;84.20;;;;;;5093562;28;20032;-81
2023/09/25 03:30:04;;;;;;;4.15;3.15;;;12.90;84.00;;;;;;5059953;28;20045;-80
2023/09/25 03:32:30;;;;;;;5.90;3.40;;;12.90;84.00;;;;;;5077445;28;20502;-78
2023/09/25 03:34:56;;;;;;;7.05;3.70;;;12.90;84.10;;;;;;5059755;28;20036;-80
2023/09/25 03:37:22;;;;;;;6.72;3.88;;;12.80;84.40;;;;;;5060073;28;20085;-80
2023/09/25 03:39:47;;;;;;;6.38;3.95;;;12.80;84.60;;;;;;5076113;28;20039;-81
2023/09/25 03:42:13;;;;;;;5.93;3.80;;;12.70;84.60;;;;;;5042995;28;20032;-80
2023/09/25 03:44:39;;;;;;;5.68;4.05;;;12.70;84.60;;;;;;5076512;28;20044;-81
2023/09/25 03:47:04;;;;;;;9.43;4.47;;;12.70;84.60;;;;;;5059480;28;20458;-83
2023/09/25 03:49:30;;;;;;;5.95;3.85;;;12.70;84.70;;;;;;5075921;28;20040;-80
2023/09/25 03:51:56;;;;;;;4.43;3.55;;;12.70;84.70;;;;;;5059659;28;20071;-80
2023/09/25 03:54:21;;;;;;;5.03;3.60;;;12.70;84.50;;;;;;5076353;28;20040;-78
2023/09/25 03:56:47;;;;;;;7.57;3.60;;;12.70;84.50;;;;;;5042838;28;20449;-80
2023/09/25 03:59:13;;;;;;;5.30;3.55;;;12.70;84.70;;;;;;5042144;28;20052;-78
2023/09/25 04:01:39;;;;;;;5.55;3.45;;;12.70;84.50;;;;;;5092904;28;20122;-81
2023/09/25 04:04:06;;;;;;;5.13;3.65;;;12.80;84.40;;;;;;5075896;28;20040;-80
2023/09/25 04:06:32;;;;;;;4.90;3.45;;;12.80;84.30;;;;;;5042880;28;20048;-82
2023/09/25 04:08:58;;;;;;;7.40;4.07;;;12.80;84.00;;;;;;5043028;28;20174;-82
2023/09/25 04:11:24;;;;;;;5.20;4.10;;;12.80;83.90;;;;;;5042697;28;20127;-80
2023/09/25 04:13:49;;;;;;;6.22;4.13;;;12.90;84.00;;;;;;5042835;28;20047;-78
2023/09/25 04:16:16;;;;;;;5.45;3.78;;;12.90;83.90;;;;;;5058878;28;20040;-80
2023/09/25 04:18:45;;;;;;;8.13;3.67;;;12.90;83.80;;;;;;5058988;28;20468;-80
2023/09/25 04:21:24;;;;;;;6.20;3.30;;;12.80;83.80;;;;;;5148215;27;1283534;-78
2023/09/25 04:23:49;;;;;;;6.28;3.50;;;12.90;83.70;;;;;;5158217;27;20133;-78
2023/09/25 04:26:16;;;;;;;5.15;3.20;;;12.90;83.70;;;;;;5158411;27;20049;-77
2023/09/25 04:28:42;;;;;;;8.68;4.18;;;12.80;83.80;;;;;;5175993;27;20073;-79
2023/09/25 04:31:10;;;;;;;6.53;4.20;;;12.90;83.90;;;;;;5175609;27;20121;-78
2023/09/25 04:33:35;;;;;;;6.43;4.18;;;12.80;84.20;;;;;;5158163;27;20037;-78
2023/09/25 04:36:01;;;;;;;5.55;4.00;;;12.80;84.30;;;;;;5175349;27;20086;-78
2023/09/25 04:38:30;;;;;;;6.65;4.25;;;12.80;84.10;;;;;;5175298;27;20042;-80
2023/09/25 04:40:56;;;;;;;6.00;3.90;;;12.80;84.00;;;;;;5175498;27;20129;-81
2023/09/25 04:43:22;;;;;;;5.55;3.83;;;12.80;84.20;;;;;;5158544;27;20174;-81
2023/09/25 04:45:52;;;;;;;5.03;3.75;;;12.80;83.90;;;;;;5157783;27;20090;-82
2023/09/25 04:48:21;;;;;;;5.78;3.78;;;12.80;84.10;;;;;;5175380;27;20030;-81
2023/09/25 04:50:48;;;;;;;4.38;3.65;;;12.70;84.50;;;;;;5157901;27;20046;-80
2023/09/25 04:53:14;;;;;;;6.63;4.20;;;12.70;84.60;;;;;;5175066;27;20509;-78
2023/09/25 04:55:40;;;;;;;4.60;3.20;;;12.70;84.50;;;;;;5140702;27;20034;-80
2023/09/25 04:58:06;;;;;;;6.80;3.58;;;12.70;84.50;;;;;;5158082;27;20038;-81
2023/09/25 05:00:32;;;;;;;7.80;4.32;;;12.70;84.40;;;;;;5157514;27;20042;-79
2023/09/25 05:02:59;;;;;;;6.93;4.03;;;12.70;84.50;;;;;;5157863;27;20105;-79
2023/09/25 05:05:26;;;;;;;6.18;3.97;;;12.70;84.50;;;;;;5140676;27;20074;-80
2023/09/25 05:07:54;;;;;;;6.20;4.28;;;12.60;84.70;;;;;;5157456;27;20037;-81
2023/09/25 05:10:25;;;;;;;6.15;4.28;;;12.60;84.90;;;;;;5157087;27;20038;-80
2023/09/25 05:12:52;;;;;;;5.88;3.83;;;12.60;84.80;;;;;;5174602;27;20500;-81
2023/09/25 05:15:19;;;;;;;5.05;3.88;;;12.60;84.70;;;;;;5157277;27;20493;-79
2023/09/25 05:17:45;;;;;;;5.45;3.78;;;12.70;84.70;;;;;;5157421;27;20133;-79
2023/09/25 05:20:15;;;;;;;5.30;3.50;;;12.70;84.50;;;;;;5171200;27;20069;-79
2023/09/25 05:22:49;;;;;;;6.22;3.83;;;12.70;84.70;;;;;;5171142;27;20038;-81
2023/09/25 05:25:16;;;;;;;4.93;4.00;;;12.60;84.80;;;;;;5153404;27;20470;-81
2023/09/25 05:27:45;;;;;;;9.15;3.92;;;12.70;84.70;;;;;;5153512;27;20045;-80
2023/09/25 05:30:11;;;;;;;7.72;4.05;;;12.70;84.70;;;;;;5170531;27;20091;-80
2023/09/25 05:32:38;;;;;;;5.95;3.63;;;12.70;84.80;;;;;;5123484;27;20046;-79
2023/09/25 05:35:07;;;;;;;6.43;4.18;;;12.70;84.60;;;;;;5139450;27;20042;-79
2023/09/25 05:37:33;;;;;;;5.38;4.05;;;12.70;84.40;;;;;;5139609;27;20045;-80
2023/09/25 05:40:03;;;;;;;8.10;5.00;;;12.70;84.50;;;;;;5156579;27;20127;-81
2023/09/25 05:42:29;;;;;;;5.72;4.55;;;12.70;84.40;;;;;;5122989;27;20079;-79
2023/09/25 05:44:55;;;;;;;7.35;4.38;;;12.70;84.60;;;;;;5139955;27;20030;-82
2023/09/25 05:47:21;;;;;;;6.50;3.90;;;12.70;84.60;;;;;;5139664;27;20038;-79
2023/09/25 05:49:47;;;;;;;5.93;4.40;;;12.70;84.60;;;;;;5156730;27;20085;-80
2023/09/25 05:52:13;;;;;;;8.18;3.83;;;12.70;84.70;;;;;;5139197;27;20505;-80
2023/09/25 05:54:39;;;;;;;4.72;3.85;;;12.70;84.60;;;;;;5122402;27;20053;-81
2023/09/25 05:57:08;;;;;;;4.32;3.40;;;12.70;84.60;;;;;;5121970;27;20061;-82
2023/09/25 05:59:34;;;;;;;6.20;3.58;;;12.70;84.50;;;;;;5139023;27;20462;-81
2023/09/25 06:02:00;;;;;;;5.10;3.55;;;12.80;84.30;;;;;;5122090;27;20030;-82
2023/09/25 06:04:26;;;;;;;4.82;3.47;;;12.80;84.30;;;;;;5139470;27;20035;-80
2023/09/25 06:06:52;;;;;;;5.80;3.33;;;12.80;84.30;;;;;;5122255;27;20539;-79
2023/09/25 06:09:19;;;;;;;4.68;3.55;;;12.80;84.20;;;;;;5121753;27;20062;-80
2023/09/25 06:11:45;;;;;;;4.63;3.42;;;12.80;84.20;;;;;;5122847;27;20079;-81
2023/09/25 06:14:10;;;;;;;6.05;3.47;;;12.90;84.10;;;;;;5157352;27;20083;-83
2023/09/25 06:16:36;;;;;;;4.55;3.08;;;12.90;84.10;;;;;;5140382;27;20043;-78
2023/09/25 06:19:06;;;;;;;5.97;3.58;;;12.90;84.00;;;;;;5123051;27;20126;-79
2023/09/25 06:21:33;;;;;;;7.53;3.83;;;12.90;84.10;;;;;;5139439;27;20099;-82
2023/09/25 06:23:59;;;;;;;5.45;3.15;;;13.00;84.00;;;;;;5138977;27;20381;-80
2023/09/25 06:26:27;;;;;;;6.07;3.25;;;12.90;84.10;;;;;;5155905;27;20038;-80
2023/09/25 06:28:54;;;;;;;7.88;3.65;;;12.90;84.10;;;;;;5138467;27;20042;-79
2023/09/25 06:31:21;;;;;;;4.70;2.95;;;13.00;83.90;;;;;;5155999;27;20072;-78
2023/09/25 06:33:47;;;;;;;6.82;3.63;;;13.00;83.80;;;;;;5155778;27;20038;-80
2023/09/25 06:36:13;;;;;;;7.03;3.53;;;13.00;83.70;;;;;;5138499;27;20043;-82
2023/09/25 06:38:39;;;;;;;5.28;3.45;;;13.00;83.70;;;;;;5138388;27;20099;-80
2023/09/25 06:41:05;;;;;;;4.85;3.50;;;13.00;83.70;;;;;;5155567;27;20038;-78
2023/09/25 06:43:31;;;;;;;4.97;3.95;;;13.10;83.60;;;;;;5154527;27;20482;-80
2023/09/25 06:45:56;;;;;;;4.57;3.35;;;13.00;83.60;;;;;;5138340;27;20035;-79
2023/09/25 06:48:22;;;;;;;4.57;3.58;;;13.00;83.80;;;;;;5156057;27;20035;-79
2023/09/25 06:50:50;;;;;;;5.72;3.50;;;13.00;83.80;;;;;;5138834;27;20111;-81
2023/09/25 06:53:19;;;;;;;4.45;3.40;;;13.10;83.70;;;;;;5138359;27;20367;-79
2023/09/25 06:55:46;;;;;;;5.05;3.40;;;13.10;83.70;;;;;;5138404;27;20034;-80
2023/09/25 06:58:12;;;;;;;4.63;3.30;;;13.10;83.70;;;;;;5121195;27;20363;-82
2023/09/25 07:00:38;;;;;;;4.28;3.60;;;13.20;83.60;;;;;;5137746;27;20046;-80
2023/09/25 07:03:04;;;;;;;4.35;2.60;;;13.20;83.40;;;;;;5138301;27;20118;-82
2023/09/25 07:05:29;;;;;;;3.58;2.75;;;13.20;83.40;;;;;;5137906;27;20551;-82
2023/09/25 07:07:56;;;;;;;5.63;3.08;;;13.20;83.30;;;;;;5137841;27;20211;-79
2023/09/25 07:10:22;;;;;;;3.95;3.17;;;13.30;83.30;;;;;;5121167;27;20074;-82
2023/09/25 07:12:48;;;;;;;6.53;3.78;;;13.30;83.40;;;;;;5138962;27;20042;-82
2023/09/25 07:15:14;;;;;;;5.40;3.22;;;13.30;83.30;;;;;;5139586;27;20046;-82
2023/09/25 07:17:40;;;;;;;5.18;2.97;;;13.40;83.40;;;;;;5122983;27;20067;-82
2023/09/25 07:20:06;;;;;;;5.43;3.38;;;13.30;83.40;;;;;;5137969;27;20436;-81
2023/09/25 07:22:32;;;;;;;5.63;3.38;;;13.50;83.40;;;;;;5122034;27;20042;-79
2023/09/25 07:24:57;;;;;;;7.30;3.80;;;13.50;83.20;;;;;;5138075;27;20045;-79
2023/09/25 07:27:23;;;;;;;4.68;3.10;;;13.50;83.10;;;;;;5137755;27;20035;-81
2023/09/25 07:29:49;;;;;;;4.68;3.10;;;13.50;83.10;;;;;;5154599;27;20454;-80
2023/09/25 07:32:15;;;;;;;4.75;3.00;;;13.60;83.10;;;;;;5120206;27;20034;-80
2023/09/25 07:34:42;;;;;;;6.10;3.80;;;13.60;82.80;;;;;;5154519;27;20130;-81
2023/09/25 07:37:08;;;;;;;4.55;3.30;;;13.60;82.60;;;;;;5137345;27;20049;-80
2023/09/25 07:39:38;;;;;;;5.65;2.83;;;13.60;82.30;;;;;;5120010;27;20046;-80
2023/09/25 07:42:04;;;;;;;4.47;2.70;;;13.70;82.30;;;;;;5154644;27;20042;-82
2023/09/25 07:44:33;;;;;;;4.22;2.90;;;13.70;82.30;;;;;;5154344;27;20041;-81
2023/09/25 07:47:06;;;;;;;4.45;2.78;;;13.80;81.90;;;;;;5154345;27;20397;-82
2023/09/25 07:49:44;;;;;;;4.03;2.80;;;13.80;81.30;;;;;;5152589;27;20066;-81
2023/09/25 07:52:18;;;;;;;5.10;2.75;;;13.90;81.60;;;;;;5136993;27;20045;-82
2023/09/25 07:54:45;;;;;;;3.55;2.30;;;13.90;81.20;;;;;;5136786;27;20054;-81
2023/09/25 07:57:15;;;;;;;4.32;2.40;;;14.00;80.70;;;;;;5137296;27;20525;-79
2023/09/25 07:59:42;;;;;;;4.60;2.60;;;14.00;81.00;;;;;;5154186;27;20042;-78
2023/09/25 08:02:07;;;;;;;3.53;2.50;;;14.10;80.50;;;;;;5153953;27;20528;-80
2023/09/25 08:04:35;;;;;;;5.95;2.67;;;14.20;80.30;;;;;;5137011;27;20121;-81
2023/09/25 08:07:02;;;;;;;5.63;2.53;;;14.30;79.70;;;;;;5137661;27;20091;-81
2023/09/25 08:09:28;;;;;;;4.30;2.28;;;14.30;79.20;;;;;;5119957;27;20072;-80
2023/09/25 08:11:54;;;;;;;6.45;3.08;;;14.30;79.00;;;;;;5136872;27;20038;-82
2023/09/25 08:14:19;;;;;;;4.55;2.70;;;14.40;79.20;;;;;;5154184;27;20054;-81
2023/09/25 08:16:46;;;;;;;2.97;2.10;;;14.50;79.30;;;;;;5136791;27;20043;-81
2023/09/25 08:19:11;;;;;;;4.65;2.35;;;14.60;79.20;;;;;;5136920;27;20074;-78
2023/09/25 08:21:37;;;;;;;4.05;2.65;;;14.60;79.30;;;;;;5153737;27;20082;-81
2023/09/25 08:24:03;;;;;;;3.85;2.78;;;14.70;79.10;;;;;;5120066;27;20039;-81
2023/09/25 08:26:29;;;;;;;4.53;2.78;;;14.70;79.00;;;;;;5153883;27;20026;-82
2023/09/25 08:28:57;;;;;;;5.07;2.17;;;14.80;78.80;;;;;;5137195;27;20031;-80
2023/09/25 08:31:24;;;;;;;5.65;2.25;;;14.90;78.70;;;;;;5136734;27;20087;-80
2023/09/25 08:33:49;;;;;;;5.32;2.30;;;15.00;78.60;;;;;;5136779;27;20125;-80
2023/09/25 08:36:15;;;;;;;3.95;2.40;;;15.00;78.40;;;;;;5136878;27;20130;-83
2023/09/25 08:38:41;;;;;;;4.75;2.28;;;15.10;78.30;;;;;;5154029;27;20043;-82
2023/09/25 08:41:07;;;;;;;3.85;2.50;;;15.20;77.70;;;;;;5102336;27;20427;-80
2023/09/25 08:43:33;;;;;;;4.03;2.35;;;15.20;77.20;;;;;;5136751;27;20030;-81
2023/09/25 08:45:59;;;;;;;5.80;2.45;;;15.30;77.10;;;;;;5153737;27;20496;-80
2023/09/25 08:48:24;;;;;;;4.15;2.90;;;15.50;76.90;;;;;;5136547;27;20035;-83
2023/09/25 08:50:50;;;;;;;6.90;3.22;;;15.60;77.20;;;;;;5136335;27;20393;-83
2023/09/25 08:53:16;;;;;;;6.72;2.58;;;15.60;76.80;;;;;;5136530;27;20054;-84
2023/09/25 08:55:45;;;;;;;5.90;2.90;;;15.80;76.80;;;;;;5118631;27;20045;-82
2023/09/25 08:58:11;;;;;;;4.22;2.92;;;15.90;76.50;;;;;;5135893;27;20494;-83
2023/09/25 09:00:39;;;;;;;3.47;2.70;;;16.00;75.80;;;;;;5118764;27;20043;-81
2023/09/25 09:03:05;;;;;;;4.45;2.15;;;16.20;75.90;;;;;;5152998;27;20570;-82
2023/09/25 09:05:31;;;;;;;3.78;2.50;;;16.20;75.50;;;;;;5135705;27;20046;-82
2023/09/25 09:08:09;;;;;;;5.22;2.20;;;16.40;74.80;;;;;;5139258;27;20406;-84
2023/09/25 09:10:37;;;;;;;4.72;2.25;;;16.50;74.50;;;;;;5107794;27;20035;-84
2023/09/25 09:13:09;;;;;;;4.85;2.28;;;16.60;74.50;;;;;;5139646;27;20042;-82
2023/09/25 09:15:35;;;;;;;5.55;2.40;;;16.60;73.30;;;;;;5156859;27;20050;-80
2023/09/25 09:18:16;;;;;;;4.95;2.15;;;16.70;73.60;;;;;;5139867;27;20042;-81
2023/09/25 09:20:42;;;;;;;3.67;2.65;;;16.70;73.40;;;;;;5149872;27;20139;-81
2023/09/25 09:23:09;;;;;;;3.90;2.67;;;16.90;73.70;;;;;;5105386;27;20053;-83
2023/09/25 09:25:35;;;;;;;4.85;2.45;;;16.90;72.80;;;;;;5122435;27;20031;-81
2023/09/25 09:28:03;;;;;;;6.03;2.55;;;17.00;73.10;;;;;;5107164;27;20030;-82
2023/09/25 09:30:30;;;;;;;4.63;2.85;;;17.10;72.30;;;;;;5164127;27;20042;-82
2023/09/25 09:32:57;;;;;;;4.20;2.50;;;17.30;72.40;;;;;;5161393;27;20183;-82
2023/09/25 09:35:25;;;;;;;5.25;2.28;;;17.50;72.30;;;;;;5150480;27;20026;-82
2023/09/25 09:37:58;;;;;;;7.25;2.97;;;17.50;71.90;;;;;;5183270;27;20031;-81
2023/09/25 09:40:25;;;;;;;5.33;2.30;;;17.50;70.80;;;;;;5170976;27;20047;-82
2023/09/25 09:42:54;;;;;;;6.82;2.75;;;17.50;70.90;;;;;;5174339;27;20091;-81
2023/09/25 09:45:21;;;;;;;3.45;1.92;;;17.50;71.50;;;;;;5141881;27;20042;-83
2023/09/25 09:47:50;;;;;;;3.45;2.30;;;17.60;71.40;;;;;;5175727;27;20026;-80
2023/09/25 09:50:26;;;;;;;4.30;2.25;;;17.60;70.50;;;;;;5156763;27;20038;-82
2023/09/25 09:52:53;;;;;;;5.07;2.85;;;17.70;70.30;;;;;;5154899;27;20030;-81
2023/09/25 09:55:21;;;;;;;4.85;2.85;;;17.80;70.40;;;;;;5151982;27;20050;-82
2023/09/25 09:57:51;;;;;;;5.45;3.00;;;17.80;70.20;;;;;;5138571;27;20037;-82
2023/09/25 10:00:17;;;;;;;5.53;3.03;;;17.90;70.60;;;;;;5155731;27;20041;-82
2023/09/25 10:02:45;;;;;;;5.22;3.00;;;18.00;70.00;;;;;;5174745;27;20038;-81
2023/09/25 10:05:13;;;;;;;5.80;2.75;;;18.10;69.90;;;;;;5157442;27;20026;-82
2023/09/25 10:08:11;;;;;;;5.90;3.10;;;18.10;68.10;;;;;;5157603;27;20084;-82
2023/09/25 10:10:40;;;;;;;6.03;3.17;;;18.10;68.80;;;;;;5156327;27;20023;-82
2023/09/25 10:13:17;;;;;;;6.20;3.53;;;18.20;68.90;;;;;;5137730;27;20022;-83
2023/09/25 10:15:57;;;;;;;5.40;3.03;;;18.30;69.30;;;;;;5174830;27;20080;-81
2023/09/25 10:18:25;;;;;;;6.53;3.08;;;18.50;69.70;;;;;;5157771;27;20042;-81
2023/09/25 10:20:51;;;;;;;4.43;2.67;;;18.50;69.40;;;;;;5155848;27;20083;-82
2023/09/25 10:23:23;;;;;;;4.35;3.53;;;18.60;69.40;;;;;;5157482;27;20038;-81
2023/09/25 10:26:02;;;;;;;4.35;3.63;;;18.60;68.70;;;;;;5157111;27;20068;-82
2023/09/25 10:28:31;;;;;;;4.05;2.97;;;18.60;69.00;;;;;;5156821;27;20054;-81
2023/09/25 10:31:04;;;;;;;5.88;3.00;;;18.80;68.40;;;;;;5170955;27;20042;-81
2023/09/25 10:33:36;;;;;;;5.43;2.90;;;18.80;68.60;;;;;;5134056;27;20050;-83
2023/09/25 10:36:05;;;;;;;5.70;3.67;;;18.80;67.40;;;;;;5130043;27;20117;-82
2023/09/25 10:38:36;;;;;;;9.73;2.72;;;19.00;67.90;;;;;;5112339;27;20049;-81
2023/09/25 10:41:08;;;;;;;5.15;3.22;;;18.90;67.10;;;;;;5147045;27;20039;-85
2023/09/25 10:43:35;;;;;;;6.82;2.80;;;19.20;67.60;;;;;;5155280;27;20039;-83
2023/09/25 10:46:01;;;;;;;4.10;3.15;;;19.30;67.60;;;;;;5120999;27;20035;-80
2023/09/25 10:48:28;;;;;;;6.75;3.15;;;19.30;67.10;;;;;;5155845;27;20039;-81
2023/09/25 10:50:55;;;;;;;6.63;3.55;;;19.40;66.90;;;;;;5156816;27;20115;-81
2023/09/25 10:53:23;;;;;;;5.35;3.53;;;19.40;66.90;;;;;;5139266;27;20046;-83
2023/09/25 10:55:49;;;;;;;6.18;3.85;;;19.40;66.10;;;;;;5139017;27;20046;-81
2023/09/25 10:58:17;;;;;;;5.78;3.25;;;19.40;66.10;;;;;;5161343;27;20125;-80
2023/09/25 11:00:45;;;;;;;5.30;3.28;;;19.60;65.70;;;;;;5160164;27;20050;-82
2023/09/25 11:03:11;;;;;;;5.05;3.38;;;19.80;65.60;;;;;;5156405;27;20026;-81
2023/09/25 11:05:38;;;;;;;5.95;3.22;;;19.80;64.80;;;;;;5154675;27;20039;-80
2023/09/25 11:08:06;;;;;;;4.95;3.30;;;19.80;64.70;;;;;;5137368;27;20034;-81
2023/09/25 11:10:38;;;;;;;8.15;3.60;;;19.90;65.10;;;;;;5137198;27;20050;-81
2023/09/25 11:13:04;;;;;;;6.43;3.28;;;20.20;64.70;;;;;;5137139;27;20403;-82
2023/09/25 11:15:36;;;;;;;5.32;3.58;;;20.10;64.30;;;;;;5153990;27;20034;-81
2023/09/25 11:18:01;;;;;;;7.32;3.25;;;20.10;64.70;;;;;;5136841;27;20045;-82
2023/09/25 11:20:29;;;;;;;8.65;4.03;;;20.20;65.00;;;;;;5136737;27;20051;-80
2023/09/25 11:23:08;;;;;;;6.88;3.70;;;20.00;65.60;;;;;;5154313;27;20049;-83
2023/09/25 11:25:44;;;;;;;5.53;3.83;;;20.00;65.30;;;;;;5140897;27;20457;-82
2023/09/25 11:28:14;;;;;;;6.57;3.17;;;20.20;65.20;;;;;;5138162;27;20038;-80
2023/09/25 11:30:41;;;;;;;5.22;3.22;;;20.30;65.50;;;;;;5120147;27;20389;-82
2023/09/25 11:33:12;;;;;;;6.68;3.15;;;20.50;64.70;;;;;;5137338;27;20042;-81
2023/09/25 11:35:38;;;;;;;7.72;4.10;;;20.60;63.70;;;;;;5123887;27;20129;-81
2023/09/25 11:38:17;;;;;;;6.63;3.53;;;20.70;64.00;;;;;;5104903;27;20394;-82
2023/09/25 11:40:44;;;;;;;7.78;3.55;;;20.60;63.20;;;;;;5154945;27;20074;-82
2023/09/25 11:43:11;;;;;;;4.93;3.30;;;20.60;64.00;;;;;;5154342;27;20099;-81
2023/09/25 11:45:38;;;;;;;8.48;3.75;;;20.60;64.30;;;;;;5154524;27;20039;-81
2023/09/25 11:48:04;;;;;;;6.57;3.83;;;20.70;64.70;;;;;;5137436;27;20099;-83
2023/09/25 11:50:30;;;;;;;5.68;3.67;;;21.00;64.80;;;;;;5137756;27;20027;-82
2023/09/25 11:52:56;;;;;;;6.68;3.90;;;21.20;64.30;;;;;;5155070;27;20382;-81
2023/09/25 11:55:22;;;;;;;6.07;3.05;;;21.30;64.00;;;;;;5154525;27;20041;-81
2023/09/25 11:57:48;;;;;;;7.32;3.47;;;21.40;63.20;;;;;;5137328;27;20045;-82
2023/09/25 12:00:15;;;;;;;5.43;3.45;;;21.30;63.00;;;;;;5121089;27;20046;-81
2023/09/25 12:02:43;;;;;;;7.35;3.67;;;21.20;63.40;;;;;;5140578;27;20039;-81
2023/09/25 12:05:09;;;;;;;6.43;3.95;;;20.80;64.00;;;;;;5159083;27;20090;-81
2023/09/25 12:07:36;;;;;;;5.82;3.83;;;21.00;64.10;;;;;;5141807;27;20043;-82
2023/09/25 12:10:06;;;;;;;6.50;3.78;;;21.10;64.00;;;;;;5124555;27;20125;-82
2023/09/25 12:12:33;;;;;;;6.35;3.72;;;21.20;63.30;;;;;;5160024;27;20516;-81
2023/09/25 12:14:59;;;;;;;6.20;4.22;;;21.50;63.20;;;;;;5142565;27;20039;-81
2023/09/25 12:17:25;;;;;;;13.25;5.40;;;21.60;62.40;;;;;;5136625;27;20545;-81
2023/09/25 12:19:54;;;;;;;6.28;3.55;;;21.90;60.10;;;;;;5136190;27;20501;-81
2023/09/25 12:22:20;;;;;;;6.82;3.80;;;21.80;60.90;;;;;;5136117;27;20054;-82
2023/09/25 12:24:46;;;;;;;7.90;3.55;;;21.80;60.90;;;;;;5136550;27;20482;-82
2023/09/25 12:27:12;;;;;;;5.55;3.50;;;21.80;62.30;;;;;;5153539;27;20038;-82
2023/09/25 12:29:37;;;;;;;6.93;4.10;;;21.70;62.20;;;;;;5119111;27;20054;-82
2023/09/25 12:32:03;;;;;;;6.63;4.25;;;21.60;62.40;;;;;;5153492;27;20066;-81
2023/09/25 12:34:29;;;;;;;4.22;3.53;;;21.40;63.10;;;;;;5136398;27;20050;-82
2023/09/25 12:36:55;;;;;;;7.35;3.72;;;21.30;63.40;;;;;;5153395;27;20042;-82
2023/09/25 12:39:21;;;;;;;5.47;3.42;;;20.90;63.60;;;;;;5136196;27;20047;-81
2023/09/25 12:41:47;;;;;;;8.25;4.40;;;21.10;64.40;;;;;;5138832;27;20038;-80
2023/09/25 12:44:13;;;;;;;5.18;3.88;;;21.20;63.60;;;;;;5141910;27;20034;-80